sensor_id;sensor_type;location;lat;lon;timestamp;temperature;humidity
39067;DHT22;24821;51.988;6.020;2023-07-31T00:00:08;16.20;99.90
39067;DHT22;24821;51.988;6.020;2023-07-31T00:02:36;16.20;99.90
39067;DHT22;24821;51.988;6.020;2023-07-31T00:05:02;16.20;99.90
39067;DHT22;24821;51.988;6.020;2023-07-31T00:07:28;16.10;99.90
39067;DHT22;24821;51.988;6.020;2023-07-31T00:09:53;16.20;99.90
39067;DHT22;24821;51.988;6.020;2023-07-31T00:12:20;16.10;99.90
39067;DHT22;24821;51.988;6.020;2023-07-31T00:14:45;16.20;99.90
39067;DHT22;24821;51.988;6.020;2023-07-31T00:17:11;16.20;99.90
39067;DHT22;24821;51.988;6.020;2023-07-31T00:19:37;16.20;99.90
39067;DHT22;24821;51.988;6.020;2023-07-31T00:22:02;16.20;99.90
39067;DHT22;24821;51.988;6.020;2023-07-31T00:24:28;16.30;99.90
39067;DHT22;24821;51.988;6.020;2023-07-31T00:26:53;16.30;99.90
39067;DHT22;24821;51.988;6.020;2023-07-31T00:29:19;16.30;99.90
39067;DHT22;24821;51.988;6.020;2023-07-31T00:31:44;16.30;99.90
39067;DHT22;24821;51.988;6.020;2023-07-31T00:34:10;16.30;99.90
39067;DHT22;24821;51.988;6.020;2023-07-31T00:36:36;16.30;99.90
39067;DHT22;24821;51.988;6.020;2023-07-31T00:39:01;16.30;99.90
39067;DHT22;24821;51.988;6.020;2023-07-31T00:41:27;16.30;99.90
39067;DHT22;24821;51.988;6.020;2023-07-31T00:43:52;16.40;99.90
39067;DHT22;24821;51.988;6.020;2023-07-31T00:46:18;16.40;99.90
39067;DHT22;24821;51.988;6.020;2023-07-31T00:48:44;16.40;99.90
39067;DHT22;24821;51.988;6.020;2023-07-31T00:51:10;16.50;99.90
39067;DHT22;24821;51.988;6.020;2023-07-31T00:53:36;16.50;99.90
39067;DHT22;24821;51.988;6.020;2023-07-31T00:56:02;16.50;99.90
39067;DHT22;24821;51.988;6.020;2023-07-31T00:58:28;16.50;99.90
39067;DHT22;24821;51.988;6.020;2023-07-31T01:00:54;16.60;99.90
39067;DHT22;24821;51.988;6.020;2023-07-31T01:03:19;16.70;99.90
39067;DHT22;24821;51.988;6.020;2023-07-31T01:05:57;16.70;99.90
39067;DHT22;24821;51.988;6.020;2023-07-31T01:13:49;17.00;99.90
39067;DHT22;24821;51.988;6.020;2023-07-31T01:16:15;17.00;99.90
39067;DHT22;24821;51.988;6.020;2023-07-31T01:18:40;17.10;99.90
39067;DHT22;24821;51.988;6.020;2023-07-31T01:26:45;17.30;99.90
39067;DHT22;24821;51.988;6.020;2023-07-31T01:32:03;17.40;99.90
39067;DHT22;24821;51.988;6.020;2023-07-31T01:34:31;17.40;99.90
39067;DHT22;24821;51.988;6.020;2023-07-31T01:36:57;17.40;99.90
39067;DHT22;24821;51.988;6.020;2023-07-31T01:39:23;17.50;99.90
39067;DHT22;24821;51.988;6.020;2023-07-31T01:41:49;17.50;99.90
39067;DHT22;24821;51.988;6.020;2023-07-31T01:44:15;17.50;99.90
39067;DHT22;24821;51.988;6.020;2023-07-31T01:46:40;17.50;99.90
39067;DHT22;24821;51.988;6.020;2023-07-31T01:49:06;17.50;99.90
39067;DHT22;24821;51.988;6.020;2023-07-31T01:51:31;17.50;99.90
39067;DHT22;24821;51.988;6.020;2023-07-31T01:54:00;17.50;99.90
39067;DHT22;24821;51.988;6.020;2023-07-31T01:56:25;17.50;99.90
39067;DHT22;24821;51.988;6.020;2023-07-31T01:58:51;17.50;99.90
39067;DHT22;24821;51.988;6.020;2023-07-31T02:01:17;17.50;99.90
39067;DHT22;24821;51.988;6.020;2023-07-31T02:03:42;17.50;99.90
39067;DHT22;24821;51.988;6.020;2023-07-31T02:06:08;17.50;99.90
39067;DHT22;24821;51.988;6.020;2023-07-31T02:08:33;17.50;99.90
39067;DHT22;24821;51.988;6.020;2023-07-31T02:10:59;17.50;99.90
39067;DHT22;24821;51.988;6.020;2023-07-31T02:13:25;17.50;99.90
39067;DHT22;24821;51.988;6.020;2023-07-31T02:15:50;17.50;99.90
39067;DHT22;24821;51.988;6.020;2023-07-31T02:18:16;17.50;99.90
39067;DHT22;24821;51.988;6.020;2023-07-31T02:20:42;17.50;99.90
39067;DHT22;24821;51.988;6.020;2023-07-31T02:23:07;17.50;99.90
39067;DHT22;24821;51.988;6.020;2023-07-31T02:25:33;17.50;99.90
39067;DHT22;24821;51.988;6.020;2023-07-31T02:27:58;17.50;99.90
39067;DHT22;24821;51.988;6.020;2023-07-31T02:30:24;17.40;99.90
39067;DHT22;24821;51.988;6.020;2023-07-31T02:32:50;17.40;99.90
39067;DHT22;24821;51.988;6.020;2023-07-31T02:35:15;17.40;99.90
39067;DHT22;24821;51.988;6.020;2023-07-31T02:37:42;17.40;99.90
39067;DHT22;24821;51.988;6.020;2023-07-31T02:40:08;17.40;99.90
39067;DHT22;24821;51.988;6.020;2023-07-31T02:42:33;17.40;99.90
39067;DHT22;24821;51.988;6.020;2023-07-31T02:44:59;17.40;99.90
39067;DHT22;24821;51.988;6.020;2023-07-31T02:47:24;17.40;99.90
39067;DHT22;24821;51.988;6.020;2023-07-31T02:49:50;17.40;99.90
39067;DHT22;24821;51.988;6.020;2023-07-31T02:52:16;17.40;99.90
39067;DHT22;24821;51.988;6.020;2023-07-31T02:54:41;17.40;99.90
39067;DHT22;24821;51.988;6.020;2023-07-31T02:57:07;17.40;99.90
39067;DHT22;24821;51.988;6.020;2023-07-31T02:59:32;17.50;99.90
39067;DHT22;24821;51.988;6.020;2023-07-31T03:01:58;17.40;99.90
39067;DHT22;24821;51.988;6.020;2023-07-31T03:04:24;17.40;99.90
39067;DHT22;24821;51.988;6.020;2023-07-31T03:06:49;17.50;99.90
39067;DHT22;24821;51.988;6.020;2023-07-31T03:09:15;17.40;99.90
39067;DHT22;24821;51.988;6.020;2023-07-31T03:11:41;17.40;99.90
39067;DHT22;24821;51.988;6.020;2023-07-31T03:14:06;17.40;99.90
39067;DHT22;24821;51.988;6.020;2023-07-31T03:16:32;17.50;99.90
39067;DHT22;24821;51.988;6.020;2023-07-31T03:18:57;17.50;99.90
39067;DHT22;24821;51.988;6.020;2023-07-31T03:21:23;17.50;99.90
39067;DHT22;24821;51.988;6.020;2023-07-31T03:23:49;17.50;99.90
39067;DHT22;24821;51.988;6.020;2023-07-31T03:26:14;17.50;99.90
39067;DHT22;24821;51.988;6.020;2023-07-31T03:28:40;17.50;99.90
39067;DHT22;24821;51.988;6.020;2023-07-31T03:31:05;17.50;99.90
39067;DHT22;24821;51.988;6.020;2023-07-31T03:33:31;17.40;99.90
39067;DHT22;24821;51.988;6.020;2023-07-31T03:35:57;17.40;99.90
39067;DHT22;24821;51.988;6.020;2023-07-31T03:38:22;17.40;99.90
39067;DHT22;24821;51.988;6.020;2023-07-31T03:40:48;17.40;99.90
39067;DHT22;24821;51.988;6.020;2023-07-31T03:43:14;17.40;99.90
39067;DHT22;24821;51.988;6.020;2023-07-31T03:45:40;17.30;99.90
39067;DHT22;24821;51.988;6.020;2023-07-31T03:48:06;17.30;99.90
39067;DHT22;24821;51.988;6.020;2023-07-31T03:50:33;17.40;99.90
39067;DHT22;24821;51.988;6.020;2023-07-31T03:52:58;17.30;99.90
39067;DHT22;24821;51.988;6.020;2023-07-31T03:55:24;17.40;99.90
39067;DHT22;24821;51.988;6.020;2023-07-31T03:57:50;17.30;99.90
39067;DHT22;24821;51.988;6.020;2023-07-31T04:00:15;17.40;99.90
39067;DHT22;24821;51.988;6.020;2023-07-31T04:02:41;17.30;99.90
39067;DHT22;24821;51.988;6.020;2023-07-31T04:05:07;17.30;99.90
39067;DHT22;24821;51.988;6.020;2023-07-31T04:07:33;17.30;99.90
39067;DHT22;24821;51.988;6.020;2023-07-31T04:09:59;17.30;99.90
39067;DHT22;24821;51.988;6.020;2023-07-31T04:12:24;17.30;99.90
39067;DHT22;24821;51.988;6.020;2023-07-31T04:14:50;17.30;99.90
39067;DHT22;24821;51.988;6.020;2023-07-31T04:17:17;17.30;99.90
39067;DHT22;24821;51.988;6.020;2023-07-31T04:19:43;17.30;99.90
39067;DHT22;24821;51.988;6.020;2023-07-31T04:22:08;17.30;99.90
39067;DHT22;24821;51.988;6.020;2023-07-31T04:24:34;17.30;99.90
39067;DHT22;24821;51.988;6.020;2023-07-31T04:27:00;17.30;99.90
39067;DHT22;24821;51.988;6.020;2023-07-31T04:29:25;17.30;99.90
39067;DHT22;24821;51.988;6.020;2023-07-31T04:31:51;17.30;99.90
39067;DHT22;24821;51.988;6.020;2023-07-31T04:34:16;17.30;99.90
39067;DHT22;24821;51.988;6.020;2023-07-31T04:36:42;17.30;99.90
39067;DHT22;24821;51.988;6.020;2023-07-31T04:39:07;17.30;99.90
39067;DHT22;24821;51.988;6.020;2023-07-31T04:41:33;17.30;99.90
39067;DHT22;24821;51.988;6.020;2023-07-31T04:43:59;17.40;99.90
39067;DHT22;24821;51.988;6.020;2023-07-31T04:46:24;17.30;99.90
39067;DHT22;24821;51.988;6.020;2023-07-31T04:48:50;17.30;99.90
39067;DHT22;24821;51.988;6.020;2023-07-31T04:51:15;17.40;99.90
39067;DHT22;24821;51.988;6.020;2023-07-31T04:53:41;17.40;99.90
39067;DHT22;24821;51.988;6.020;2023-07-31T04:56:07;17.40;99.90
39067;DHT22;24821;51.988;6.020;2023-07-31T04:58:32;17.40;99.90
39067;DHT22;24821;51.988;6.020;2023-07-31T05:00:58;17.40;99.90
39067;DHT22;24821;51.988;6.020;2023-07-31T05:03:23;17.40;99.90
39067;DHT22;24821;51.988;6.020;2023-07-31T05:05:50;17.40;99.90
39067;DHT22;24821;51.988;6.020;2023-07-31T05:08:16;17.40;99.90
39067;DHT22;24821;51.988;6.020;2023-07-31T05:10:43;17.40;99.90
39067;DHT22;24821;51.988;6.020;2023-07-31T05:13:08;17.40;99.90
39067;DHT22;24821;51.988;6.020;2023-07-31T05:15:34;17.40;99.90
39067;DHT22;24821;51.988;6.020;2023-07-31T05:17:59;17.40;99.90
39067;DHT22;24821;51.988;6.020;2023-07-31T05:20:25;17.40;99.90
39067;DHT22;24821;51.988;6.020;2023-07-31T05:22:51;17.40;99.90
39067;DHT22;24821;51.988;6.020;2023-07-31T05:25:17;17.40;99.90
39067;DHT22;24821;51.988;6.020;2023-07-31T05:27:42;17.40;99.90
39067;DHT22;24821;51.988;6.020;2023-07-31T05:30:08;17.50;99.90
39067;DHT22;24821;51.988;6.020;2023-07-31T05:32:34;17.50;99.90
39067;DHT22;24821;51.988;6.020;2023-07-31T05:34:59;17.50;99.90
39067;DHT22;24821;51.988;6.020;2023-07-31T05:37:25;17.40;99.90
39067;DHT22;24821;51.988;6.020;2023-07-31T05:39:51;17.50;99.90
39067;DHT22;24821;51.988;6.020;2023-07-31T05:42:17;17.50;99.90
39067;DHT22;24821;51.988;6.020;2023-07-31T05:44:43;17.50;99.90
39067;DHT22;24821;51.988;6.020;2023-07-31T05:47:09;17.40;99.90
39067;DHT22;24821;51.988;6.020;2023-07-31T05:49:34;17.40;99.90
39067;DHT22;24821;51.988;6.020;2023-07-31T05:52:00;17.40;99.90
39067;DHT22;24821;51.988;6.020;2023-07-31T05:54:26;17.30;99.90
39067;DHT22;24821;51.988;6.020;2023-07-31T05:56:51;17.30;99.90
39067;DHT22;24821;51.988;6.020;2023-07-31T05:59:17;17.30;99.90
39067;DHT22;24821;51.988;6.020;2023-07-31T06:01:43;17.20;99.90
39067;DHT22;24821;51.988;6.020;2023-07-31T06:04:08;17.30;99.90
39067;DHT22;24821;51.988;6.020;2023-07-31T06:06:34;17.20;99.90
39067;DHT22;24821;51.988;6.020;2023-07-31T06:09:00;17.30;99.90
39067;DHT22;24821;51.988;6.020;2023-07-31T06:11:25;17.20;99.90
39067;DHT22;24821;51.988;6.020;2023-07-31T06:13:51;17.20;99.90
39067;DHT22;24821;51.988;6.020;2023-07-31T06:16:17;17.20;99.90
39067;DHT22;24821;51.988;6.020;2023-07-31T06:18:42;17.20;99.90
39067;DHT22;24821;51.988;6.020;2023-07-31T06:21:09;17.30;99.90
39067;DHT22;24821;51.988;6.020;2023-07-31T06:23:35;17.30;99.90
39067;DHT22;24821;51.988;6.020;2023-07-31T06:26:00;17.30;99.90
39067;DHT22;24821;51.988;6.020;2023-07-31T06:28:30;17.30;99.90
39067;DHT22;24821;51.988;6.020;2023-07-31T06:30:57;17.30;99.90
39067;DHT22;24821;51.988;6.020;2023-07-31T06:33:22;17.40;99.90
39067;DHT22;24821;51.988;6.020;2023-07-31T06:35:48;17.30;99.90
39067;DHT22;24821;51.988;6.020;2023-07-31T06:38:13;17.40;99.90
39067;DHT22;24821;51.988;6.020;2023-07-31T06:40:39;17.40;99.90
39067;DHT22;24821;51.988;6.020;2023-07-31T06:43:05;17.40;99.90
39067;DHT22;24821;51.988;6.020;2023-07-31T06:45:35;17.50;99.90
39067;DHT22;24821;51.988;6.020;2023-07-31T06:48:01;17.50;99.90
39067;DHT22;24821;51.988;6.020;2023-07-31T06:50:28;17.50;99.90
39067;DHT22;24821;51.988;6.020;2023-07-31T06:52:53;17.50;99.90
39067;DHT22;24821;51.988;6.020;2023-07-31T06:55:20;17.50;99.90
39067;DHT22;24821;51.988;6.020;2023-07-31T06:57:47;17.50;99.90
39067;DHT22;24821;51.988;6.020;2023-07-31T07:00:13;17.50;99.90
39067;DHT22;24821;51.988;6.020;2023-07-31T07:02:39;17.50;99.90
39067;DHT22;24821;51.988;6.020;2023-07-31T07:05:05;17.50;99.90
39067;DHT22;24821;51.988;6.020;2023-07-31T07:07:32;17.50;99.90
39067;DHT22;24821;51.988;6.020;2023-07-31T07:09:58;17.50;99.90
39067;DHT22;24821;51.988;6.020;2023-07-31T07:12:25;17.50;99.90
39067;DHT22;24821;51.988;6.020;2023-07-31T07:14:51;17.50;99.90
39067;DHT22;24821;51.988;6.020;2023-07-31T07:17:18;17.60;99.90
39067;DHT22;24821;51.988;6.020;2023-07-31T07:19:44;17.60;99.90
39067;DHT22;24821;51.988;6.020;2023-07-31T07:22:11;17.60;99.90
39067;DHT22;24821;51.988;6.020;2023-07-31T07:24:37;17.70;99.90
39067;DHT22;24821;51.988;6.020;2023-07-31T07:27:03;17.70;99.90
39067;DHT22;24821;51.988;6.020;2023-07-31T07:29:28;17.80;99.90
39067;DHT22;24821;51.988;6.020;2023-07-31T07:31:54;17.80;99.90
39067;DHT22;24821;51.988;6.020;2023-07-31T07:34:22;17.90;99.90
39067;DHT22;24821;51.988;6.020;2023-07-31T07:36:48;17.90;99.90
39067;DHT22;24821;51.988;6.020;2023-07-31T07:39:14;17.90;99.90
39067;DHT22;24821;51.988;6.020;2023-07-31T07:41:39;18.00;99.90
39067;DHT22;24821;51.988;6.020;2023-07-31T07:44:05;17.90;99.90
39067;DHT22;24821;51.988;6.020;2023-07-31T07:46:31;17.90;99.90
39067;DHT22;24821;51.988;6.020;2023-07-31T07:48:56;17.90;99.90
39067;DHT22;24821;51.988;6.020;2023-07-31T07:51:22;17.90;99.90
39067;DHT22;24821;51.988;6.020;2023-07-31T07:53:47;17.90;99.90
39067;DHT22;24821;51.988;6.020;2023-07-31T07:56:13;17.90;99.90
39067;DHT22;24821;51.988;6.020;2023-07-31T07:58:38;17.90;99.90
39067;DHT22;24821;51.988;6.020;2023-07-31T08:01:04;17.90;99.90
39067;DHT22;24821;51.988;6.020;2023-07-31T08:03:29;17.90;99.90
39067;DHT22;24821;51.988;6.020;2023-07-31T08:05:59;17.90;99.90
39067;DHT22;24821;51.988;6.020;2023-07-31T08:08:25;17.90;99.90
39067;DHT22;24821;51.988;6.020;2023-07-31T08:10:51;17.90;99.90
39067;DHT22;24821;51.988;6.020;2023-07-31T08:13:16;17.90;99.90
39067;DHT22;24821;51.988;6.020;2023-07-31T08:15:42;17.90;99.90
39067;DHT22;24821;51.988;6.020;2023-07-31T08:18:08;18.00;99.90
39067;DHT22;24821;51.988;6.020;2023-07-31T08:20:34;18.00;99.90
39067;DHT22;24821;51.988;6.020;2023-07-31T08:22:59;18.00;99.90
39067;DHT22;24821;51.988;6.020;2023-07-31T08:25:25;18.00;99.90
39067;DHT22;24821;51.988;6.020;2023-07-31T08:27:51;18.00;99.90
39067;DHT22;24821;51.988;6.020;2023-07-31T08:30:18;18.00;99.90
39067;DHT22;24821;51.988;6.020;2023-07-31T08:32:44;18.10;99.90
39067;DHT22;24821;51.988;6.020;2023-07-31T08:35:10;18.10;99.90
39067;DHT22;24821;51.988;6.020;2023-07-31T08:37:35;18.10;99.90
39067;DHT22;24821;51.988;6.020;2023-07-31T08:40:01;18.20;99.90
39067;DHT22;24821;51.988;6.020;2023-07-31T08:42:27;18.20;99.90
39067;DHT22;24821;51.988;6.020;2023-07-31T08:44:53;18.20;99.90
39067;DHT22;24821;51.988;6.020;2023-07-31T08:47:20;18.20;99.90
39067;DHT22;24821;51.988;6.020;2023-07-31T08:49:47;18.30;99.90
39067;DHT22;24821;51.988;6.020;2023-07-31T08:52:13;18.30;99.90
39067;DHT22;24821;51.988;6.020;2023-07-31T08:54:38;18.30;99.90
39067;DHT22;24821;51.988;6.020;2023-07-31T08:57:05;18.40;99.90
39067;DHT22;24821;51.988;6.020;2023-07-31T08:59:34;18.40;99.90
39067;DHT22;24821;51.988;6.020;2023-07-31T09:02:05;18.40;99.90
39067;DHT22;24821;51.988;6.020;2023-07-31T09:04:32;18.40;99.90
39067;DHT22;24821;51.988;6.020;2023-07-31T09:07:01;18.40;99.90
39067;DHT22;24821;51.988;6.020;2023-07-31T09:09:28;18.60;99.90
39067;DHT22;24821;51.988;6.020;2023-07-31T09:11:55;18.60;99.90
39067;DHT22;24821;51.988;6.020;2023-07-31T09:14:21;18.60;99.90
39067;DHT22;24821;51.988;6.020;2023-07-31T09:16:58;18.60;99.90
39067;DHT22;24821;51.988;6.020;2023-07-31T09:19:31;18.60;99.90
39067;DHT22;24821;51.988;6.020;2023-07-31T09:21:59;18.50;99.90
39067;DHT22;24821;51.988;6.020;2023-07-31T09:24:29;18.50;99.90
39067;DHT22;24821;51.988;6.020;2023-07-31T09:26:56;18.50;99.90
39067;DHT22;24821;51.988;6.020;2023-07-31T09:29:23;18.50;99.90
39067;DHT22;24821;51.988;6.020;2023-07-31T09:31:48;18.50;99.90
39067;DHT22;24821;51.988;6.020;2023-07-31T09:34:14;18.40;99.90
39067;DHT22;24821;51.988;6.020;2023-07-31T09:36:41;18.50;99.90
39067;DHT22;24821;51.988;6.020;2023-07-31T09:39:13;18.40;99.90
39067;DHT22;24821;51.988;6.020;2023-07-31T09:41:39;18.40;99.90
39067;DHT22;24821;51.988;6.020;2023-07-31T09:44:05;18.40;99.90
39067;DHT22;24821;51.988;6.020;2023-07-31T09:46:31;18.40;99.90
39067;DHT22;24821;51.988;6.020;2023-07-31T09:49:13;18.40;99.90
39067;DHT22;24821;51.988;6.020;2023-07-31T09:51:41;18.40;99.90
39067;DHT22;24821;51.988;6.020;2023-07-31T09:54:11;18.40;99.90
39067;DHT22;24821;51.988;6.020;2023-07-31T09:56:45;18.40;99.90
39067;DHT22;24821;51.988;6.020;2023-07-31T09:59:12;18.50;99.90
39067;DHT22;24821;51.988;6.020;2023-07-31T10:01:40;18.50;99.90
39067;DHT22;24821;51.988;6.020;2023-07-31T10:04:08;18.50;99.90
39067;DHT22;24821;51.988;6.020;2023-07-31T10:06:34;18.60;99.90
39067;DHT22;24821;51.988;6.020;2023-07-31T10:09:02;18.60;99.90
39067;DHT22;24821;51.988;6.020;2023-07-31T10:11:30;18.60;99.90
39067;DHT22;24821;51.988;6.020;2023-07-31T10:13:58;18.60;99.90
39067;DHT22;24821;51.988;6.020;2023-07-31T10:16:24;18.70;99.90
39067;DHT22;24821;51.988;6.020;2023-07-31T10:18:50;18.80;99.90
39067;DHT22;24821;51.988;6.020;2023-07-31T10:21:17;18.80;99.90
39067;DHT22;24821;51.988;6.020;2023-07-31T10:23:43;18.80;99.90
39067;DHT22;24821;51.988;6.020;2023-07-31T10:26:10;18.90;99.90
39067;DHT22;24821;51.988;6.020;2023-07-31T10:28:37;18.80;99.90
39067;DHT22;24821;51.988;6.020;2023-07-31T10:31:04;18.90;99.90
39067;DHT22;24821;51.988;6.020;2023-07-31T10:33:30;18.90;99.90
39067;DHT22;24821;51.988;6.020;2023-07-31T10:36:25;19.00;99.90
39067;DHT22;24821;51.988;6.020;2023-07-31T10:38:52;19.10;99.90
39067;DHT22;24821;51.988;6.020;2023-07-31T10:41:18;19.10;99.90
39067;DHT22;24821;51.988;6.020;2023-07-31T10:43:46;19.20;99.90
39067;DHT22;24821;51.988;6.020;2023-07-31T10:46:13;19.20;99.90
39067;DHT22;24821;51.988;6.020;2023-07-31T10:48:40;19.10;99.90
39067;DHT22;24821;51.988;6.020;2023-07-31T10:51:11;19.10;99.90
39067;DHT22;24821;51.988;6.020;2023-07-31T10:53:42;19.20;99.90
39067;DHT22;24821;51.988;6.020;2023-07-31T10:56:09;19.20;99.90
39067;DHT22;24821;51.988;6.020;2023-07-31T10:58:37;19.20;99.90
39067;DHT22;24821;51.988;6.020;2023-07-31T11:01:05;19.30;99.90
39067;DHT22;24821;51.988;6.020;2023-07-31T11:03:51;19.40;99.90
39067;DHT22;24821;51.988;6.020;2023-07-31T11:06:19;19.40;99.90
39067;DHT22;24821;51.988;6.020;2023-07-31T11:08:46;19.50;99.90
39067;DHT22;24821;51.988;6.020;2023-07-31T11:11:17;19.50;99.90
39067;DHT22;24821;51.988;6.020;2023-07-31T11:13:44;19.50;99.90
39067;DHT22;24821;51.988;6.020;2023-07-31T11:16:12;19.40;99.90
39067;DHT22;24821;51.988;6.020;2023-07-31T11:18:41;19.40;99.90
39067;DHT22;24821;51.988;6.020;2023-07-31T11:21:09;19.50;99.90
39067;DHT22;24821;51.988;6.020;2023-07-31T11:23:37;19.50;99.90
39067;DHT22;24821;51.988;6.020;2023-07-31T11:26:05;19.50;99.90
39067;DHT22;24821;51.988;6.020;2023-07-31T11:28:35;19.50;99.90
39067;DHT22;24821;51.988;6.020;2023-07-31T11:31:01;19.50;99.90
39067;DHT22;24821;51.988;6.020;2023-07-31T11:33:27;19.50;99.90
39067;DHT22;24821;51.988;6.020;2023-07-31T11:35:53;19.50;99.90
39067;DHT22;24821;51.988;6.020;2023-07-31T11:38:23;19.50;99.90
39067;DHT22;24821;51.988;6.020;2023-07-31T11:40:49;19.40;99.90
39067;DHT22;24821;51.988;6.020;2023-07-31T11:43:15;19.40;99.90
39067;DHT22;24821;51.988;6.020;2023-07-31T11:45:48;19.40;99.90
39067;DHT22;24821;51.988;6.020;2023-07-31T11:51:00;19.50;99.90
39067;DHT22;24821;51.988;6.020;2023-07-31T11:53:33;19.60;99.90
39067;DHT22;24821;51.988;6.020;2023-07-31T11:56:01;19.60;99.90
39067;DHT22;24821;51.988;6.020;2023-07-31T11:58:31;19.60;99.90
39067;DHT22;24821;51.988;6.020;2023-07-31T12:01:01;19.60;99.90
39067;DHT22;24821;51.988;6.020;2023-07-31T12:03:27;19.60;99.90
39067;DHT22;24821;51.988;6.020;2023-07-31T12:05:53;19.60;99.90
39067;DHT22;24821;51.988;6.020;2023-07-31T12:08:21;19.60;99.90
39067;DHT22;24821;51.988;6.020;2023-07-31T12:10:50;19.60;99.90
39067;DHT22;24821;51.988;6.020;2023-07-31T12:13:24;19.60;99.90
39067;DHT22;24821;51.988;6.020;2023-07-31T12:15:57;19.60;99.90
39067;DHT22;24821;51.988;6.020;2023-07-31T12:18:25;19.60;99.90
39067;DHT22;24821;51.988;6.020;2023-07-31T12:20:55;19.70;99.90
39067;DHT22;24821;51.988;6.020;2023-07-31T12:23:23;19.70;99.90
39067;DHT22;24821;51.988;6.020;2023-07-31T12:26:04;19.80;99.90
39067;DHT22;24821;51.988;6.020;2023-07-31T12:28:32;19.80;99.90
39067;DHT22;24821;51.988;6.020;2023-07-31T12:31:00;19.80;99.90
39067;DHT22;24821;51.988;6.020;2023-07-31T12:33:34;19.80;99.90
39067;DHT22;24821;51.988;6.020;2023-07-31T12:36:07;19.70;99.90
39067;DHT22;24821;51.988;6.020;2023-07-31T12:38:34;19.70;99.90
39067;DHT22;24821;51.988;6.020;2023-07-31T12:41:00;19.60;99.90
39067;DHT22;24821;51.988;6.020;2023-07-31T12:43:25;19.60;99.90
39067;DHT22;24821;51.988;6.020;2023-07-31T12:45:51;19.60;99.90
39067;DHT22;24821;51.988;6.020;2023-07-31T12:48:17;19.50;99.90
39067;DHT22;24821;51.988;6.020;2023-07-31T12:50:42;19.50;99.90
39067;DHT22;24821;51.988;6.020;2023-07-31T12:53:08;19.50;99.90
39067;DHT22;24821;51.988;6.020;2023-07-31T12:55:34;19.40;99.90
39067;DHT22;24821;51.988;6.020;2023-07-31T12:58:00;19.40;99.90
39067;DHT22;24821;51.988;6.020;2023-07-31T13:00:26;19.40;99.90
39067;DHT22;24821;51.988;6.020;2023-07-31T13:02:52;19.40;99.90
39067;DHT22;24821;51.988;6.020;2023-07-31T13:05:17;19.30;99.90
39067;DHT22;24821;51.988;6.020;2023-07-31T13:07:45;19.30;99.90
39067;DHT22;24821;51.988;6.020;2023-07-31T13:10:10;19.30;99.90
39067;DHT22;24821;51.988;6.020;2023-07-31T13:12:36;19.30;99.90
39067;DHT22;24821;51.988;6.020;2023-07-31T13:15:02;19.40;99.90
39067;DHT22;24821;51.988;6.020;2023-07-31T13:17:28;19.40;99.90
39067;DHT22;24821;51.988;6.020;2023-07-31T13:19:54;19.50;99.90
39067;DHT22;24821;51.988;6.020;2023-07-31T13:22:19;19.50;99.90
39067;DHT22;24821;51.988;6.020;2023-07-31T13:24:45;19.60;99.90
39067;DHT22;24821;51.988;6.020;2023-07-31T13:27:10;19.70;99.90
39067;DHT22;24821;51.988;6.020;2023-07-31T13:29:36;19.70;99.90
39067;DHT22;24821;51.988;6.020;2023-07-31T13:32:02;19.80;99.90
39067;DHT22;24821;51.988;6.020;2023-07-31T13:34:27;19.80;99.90
39067;DHT22;24821;51.988;6.020;2023-07-31T13:36:54;19.90;99.90
39067;DHT22;24821;51.988;6.020;2023-07-31T13:39:21;20.00;99.90
39067;DHT22;24821;51.988;6.020;2023-07-31T13:41:47;20.10;99.90
39067;DHT22;24821;51.988;6.020;2023-07-31T13:44:12;20.20;99.90
39067;DHT22;24821;51.988;6.020;2023-07-31T13:46:38;20.20;99.90
39067;DHT22;24821;51.988;6.020;2023-07-31T13:49:04;20.20;99.90
39067;DHT22;24821;51.988;6.020;2023-07-31T13:51:29;20.20;99.90
39067;DHT22;24821;51.988;6.020;2023-07-31T13:53:55;20.20;99.90
39067;DHT22;24821;51.988;6.020;2023-07-31T13:56:21;20.20;99.90
39067;DHT22;24821;51.988;6.020;2023-07-31T13:58:46;20.10;99.90
39067;DHT22;24821;51.988;6.020;2023-07-31T14:01:12;20.00;99.90
39067;DHT22;24821;51.988;6.020;2023-07-31T14:03:37;19.90;99.90
39067;DHT22;24821;51.988;6.020;2023-07-31T14:06:03;19.90;99.90
39067;DHT22;24821;51.988;6.020;2023-07-31T14:08:29;19.90;99.90
39067;DHT22;24821;51.988;6.020;2023-07-31T14:10:55;19.90;99.90
39067;DHT22;24821;51.988;6.020;2023-07-31T14:13:21;19.90;99.90
39067;DHT22;24821;51.988;6.020;2023-07-31T14:15:46;20.00;99.90
39067;DHT22;24821;51.988;6.020;2023-07-31T14:18:12;20.00;99.90
39067;DHT22;24821;51.988;6.020;2023-07-31T14:20:37;20.00;99.90
39067;DHT22;24821;51.988;6.020;2023-07-31T14:23:03;19.90;99.90
39067;DHT22;24821;51.988;6.020;2023-07-31T14:25:29;19.90;99.90
39067;DHT22;24821;51.988;6.020;2023-07-31T14:27:55;19.90;99.90
39067;DHT22;24821;51.988;6.020;2023-07-31T14:30:21;19.90;99.90
39067;DHT22;24821;51.988;6.020;2023-07-31T14:32:47;19.80;99.90
39067;DHT22;24821;51.988;6.020;2023-07-31T14:35:12;19.80;99.90
39067;DHT22;24821;51.988;6.020;2023-07-31T14:37:42;19.80;99.90
39067;DHT22;24821;51.988;6.020;2023-07-31T14:40:10;19.70;99.90
39067;DHT22;24821;51.988;6.020;2023-07-31T14:42:36;19.70;99.90
39067;DHT22;24821;51.988;6.020;2023-07-31T14:45:05;19.70;99.90
39067;DHT22;24821;51.988;6.020;2023-07-31T14:47:31;19.70;99.90
39067;DHT22;24821;51.988;6.020;2023-07-31T14:49:58;19.70;99.90
39067;DHT22;24821;51.988;6.020;2023-07-31T14:52:23;19.60;99.90
39067;DHT22;24821;51.988;6.020;2023-07-31T14:54:49;19.60;99.90
39067;DHT22;24821;51.988;6.020;2023-07-31T14:57:15;19.60;99.90
39067;DHT22;24821;51.988;6.020;2023-07-31T14:59:40;19.50;99.90
39067;DHT22;24821;51.988;6.020;2023-07-31T15:02:07;19.40;99.90
39067;DHT22;24821;51.988;6.020;2023-07-31T15:04:33;19.40;99.90
39067;DHT22;24821;51.988;6.020;2023-07-31T15:06:59;19.40;99.90
39067;DHT22;24821;51.988;6.020;2023-07-31T15:09:24;19.40;99.90
39067;DHT22;24821;51.988;6.020;2023-07-31T15:11:50;19.40;99.90
39067;DHT22;24821;51.988;6.020;2023-07-31T15:14:15;19.50;99.90
39067;DHT22;24821;51.988;6.020;2023-07-31T15:16:41;19.50;99.90
39067;DHT22;24821;51.988;6.020;2023-07-31T15:19:07;19.50;99.90
39067;DHT22;24821;51.988;6.020;2023-07-31T15:21:32;19.40;99.90
39067;DHT22;24821;51.988;6.020;2023-07-31T15:23:58;19.50;99.90
39067;DHT22;24821;51.988;6.020;2023-07-31T15:26:23;19.40;99.90
39067;DHT22;24821;51.988;6.020;2023-07-31T15:28:55;19.40;99.90
39067;DHT22;24821;51.988;6.020;2023-07-31T15:31:21;19.40;99.90
39067;DHT22;24821;51.988;6.020;2023-07-31T15:33:48;19.40;99.90
39067;DHT22;24821;51.988;6.020;2023-07-31T15:36:13;19.40;99.90
39067;DHT22;24821;51.988;6.020;2023-07-31T15:38:39;19.40;99.90
39067;DHT22;24821;51.988;6.020;2023-07-31T15:41:05;19.40;99.90